sensor_id;sensor_type;location;lat;lon;timestamp;P1;P2;P0
36453;PMS5003;22478;51.740;-1.314;2023-09-08T00:00:41;20;18;
36453;PMS5003;22478;51.740;-1.314;2023-09-08T00:03:08;20;20;
36453;PMS5003;22478;51.740;-1.314;2023-09-08T00:05:35;19;18;
36453;PMS5003;22478;51.740;-1.314;2023-09-08T00:08:03;16;16;
36453;PMS5003;22478;51.740;-1.314;2023-09-08T00:10:30;20;17;
36453;PMS5003;22478;51.740;-1.314;2023-09-08T00:12:58;19;17;
36453;PMS5003;22478;51.740;-1.314;2023-09-08T00:15:25;21;19;
36453;PMS5003;22478;51.740;-1.314;2023-09-08T00:17:52;21;19;
36453;PMS5003;22478;51.740;-1.314;2023-09-08T00:20:19;23;20;
36453;PMS5003;22478;51.740;-1.314;2023-09-08T00:22:47;16;16;
36453;PMS5003;22478;51.740;-1.314;2023-09-08T00:25:13;19;19;
36453;PMS5003;22478;51.740;-1.314;2023-09-08T00:27:41;18;18;
36453;PMS5003;22478;51.740;-1.314;2023-09-08T00:30:08;18;18;
36453;PMS5003;22478;51.740;-1.314;2023-09-08T00:32:36;19;19;
36453;PMS5003;22478;51.740;-1.314;2023-09-08T00:35:05;22;22;
36453;PMS5003;22478;51.740;-1.314;2023-09-08T00:37:33;21;21;
36453;PMS5003;22478;51.740;-1.314;2023-09-08T00:40:00;17;17;
36453;PMS5003;22478;51.740;-1.314;2023-09-08T00:42:28;23;20;
36453;PMS5003;22478;51.740;-1.314;2023-09-08T00:44:55;17;17;
36453;PMS5003;22478;51.740;-1.314;2023-09-08T00:47:22;20;19;
36453;PMS5003;22478;51.740;-1.314;2023-09-08T00:49:50;26;23;
36453;PMS5003;22478;51.740;-1.314;2023-09-08T00:52:17;21;20;
36453;PMS5003;22478;51.740;-1.314;2023-09-08T00:54:45;26;26;
36453;PMS5003;22478;51.740;-1.314;2023-09-08T00:57:12;26;25;
36453;PMS5003;22478;51.740;-1.314;2023-09-08T00:59:40;27;25;
36453;PMS5003;22478;51.740;-1.314;2023-09-08T01:02:07;21;21;
36453;PMS5003;22478;51.740;-1.314;2023-09-08T01:04:34;21;20;
36453;PMS5003;22478;51.740;-1.314;2023-09-08T01:07:01;22;20;
36453;PMS5003;22478;51.740;-1.314;2023-09-08T01:09:28;22;20;
36453;PMS5003;22478;51.740;-1.314;2023-09-08T01:11:55;18;18;
36453;PMS5003;22478;51.740;-1.314;2023-09-08T01:14:22;24;21;
36453;PMS5003;22478;51.740;-1.314;2023-09-08T01:16:50;19;18;
36453;PMS5003;22478;51.740;-1.314;2023-09-08T01:19:17;21;21;
36453;PMS5003;22478;51.740;-1.314;2023-09-08T01:21:52;20;20;
36453;PMS5003;22478;51.740;-1.314;2023-09-08T01:24:38;20;19;
36453;PMS5003;22478;51.740;-1.314;2023-09-08T01:27:25;19;18;
36453;PMS5003;22478;51.740;-1.314;2023-09-08T01:29:55;21;21;
36453;PMS5003;22478;51.740;-1.314;2023-09-08T01:32:24;27;24;
36453;PMS5003;22478;51.740;-1.314;2023-09-08T01:34:52;21;20;
36453;PMS5003;22478;51.740;-1.314;2023-09-08T01:37:22;24;24;
36453;PMS5003;22478;51.740;-1.314;2023-09-08T01:39:49;23;20;
36453;PMS5003;22478;51.740;-1.314;2023-09-08T01:42:16;18;18;
36453;PMS5003;22478;51.740;-1.314;2023-09-08T01:44:43;26;24;
36453;PMS5003;22478;51.740;-1.314;2023-09-08T01:47:11;25;21;
36453;PMS5003;22478;51.740;-1.314;2023-09-08T01:49:38;21;19;
36453;PMS5003;22478;51.740;-1.314;2023-09-08T01:52:05;17;17;
36453;PMS5003;22478;51.740;-1.314;2023-09-08T01:54:33;24;21;
36453;PMS5003;22478;51.740;-1.314;2023-09-08T01:57:00;23;22;
36453;PMS5003;22478;51.740;-1.314;2023-09-08T01:59:27;18;17;
36453;PMS5003;22478;51.740;-1.314;2023-09-08T02:01:54;22;21;
36453;PMS5003;22478;51.740;-1.314;2023-09-08T02:04:22;23;21;
36453;PMS5003;22478;51.740;-1.314;2023-09-08T02:06:49;19;18;
36453;PMS5003;22478;51.740;-1.314;2023-09-08T02:09:16;28;23;
36453;PMS5003;22478;51.740;-1.314;2023-09-08T02:11:43;20;18;
36453;PMS5003;22478;51.740;-1.314;2023-09-08T02:14:10;23;20;
36453;PMS5003;22478;51.740;-1.314;2023-09-08T02:16:38;18;18;
36453;PMS5003;22478;51.740;-1.314;2023-09-08T02:19:05;24;20;
36453;PMS5003;22478;51.740;-1.314;2023-09-08T02:21:33;24;23;
36453;PMS5003;22478;51.740;-1.314;2023-09-08T02:23:59;22;20;
36453;PMS5003;22478;51.740;-1.314;2023-09-08T02:26:27;18;18;
36453;PMS5003;22478;51.740;-1.314;2023-09-08T02:28:54;19;18;
36453;PMS5003;22478;51.740;-1.314;2023-09-08T02:31:21;21;20;
36453;PMS5003;22478;51.740;-1.314;2023-09-08T02:33:49;25;22;
36453;PMS5003;22478;51.740;-1.314;2023-09-08T02:36:16;20;19;
36453;PMS5003;22478;51.740;-1.314;2023-09-08T02:38:43;20;20;
36453;PMS5003;22478;51.740;-1.314;2023-09-08T02:41:10;19;17;
36453;PMS5003;22478;51.740;-1.314;2023-09-08T02:43:38;23;23;
36453;PMS5003;22478;51.740;-1.314;2023-09-08T02:46:05;24;21;
36453;PMS5003;22478;51.740;-1.314;2023-09-08T02:48:32;20;20;
36453;PMS5003;22478;51.740;-1.314;2023-09-08T02:51:00;23;20;
36453;PMS5003;22478;51.740;-1.314;2023-09-08T02:53:27;20;20;
36453;PMS5003;22478;51.740;-1.314;2023-09-08T02:55:55;23;23;
36453;PMS5003;22478;51.740;-1.314;2023-09-08T02:58:22;24;23;
36453;PMS5003;22478;51.740;-1.314;2023-09-08T03:00:49;24;21;
36453;PMS5003;22478;51.740;-1.314;2023-09-08T03:03:17;28;27;
36453;PMS5003;22478;51.740;-1.314;2023-09-08T03:05:44;28;25;
36453;PMS5003;22478;51.740;-1.314;2023-09-08T03:08:11;24;21;
36453;PMS5003;22478;51.740;-1.314;2023-09-08T03:10:40;24;22;
36453;PMS5003;22478;51.740;-1.314;2023-09-08T03:13:07;20;20;
36453;PMS5003;22478;51.740;-1.314;2023-09-08T03:15:34;27;24;
36453;PMS5003;22478;51.740;-1.314;2023-09-08T03:18:02;21;19;
36453;PMS5003;22478;51.740;-1.314;2023-09-08T03:20:29;20;17;
36453;PMS5003;22478;51.740;-1.314;2023-09-08T03:22:56;23;20;
36453;PMS5003;22478;51.740;-1.314;2023-09-08T03:25:24;23;23;
36453;PMS5003;22478;51.740;-1.314;2023-09-08T03:27:51;26;24;
36453;PMS5003;22478;51.740;-1.314;2023-09-08T03:30:19;24;24;
36453;PMS5003;22478;51.740;-1.314;2023-09-08T03:32:46;26;22;
36453;PMS5003;22478;51.740;-1.314;2023-09-08T03:35:13;24;22;
36453;PMS5003;22478;51.740;-1.314;2023-09-08T03:37:40;28;22;
36453;PMS5003;22478;51.740;-1.314;2023-09-08T03:40:08;25;24;
36453;PMS5003;22478;51.740;-1.314;2023-09-08T03:42:36;26;25;
36453;PMS5003;22478;51.740;-1.314;2023-09-08T03:45:04;21;19;
36453;PMS5003;22478;51.740;-1.314;2023-09-08T03:47:32;25;22;
36453;PMS5003;22478;51.740;-1.314;2023-09-08T03:49:59;26;23;
36453;PMS5003;22478;51.740;-1.314;2023-09-08T03:52:26;22;21;
36453;PMS5003;22478;51.740;-1.314;2023-09-08T03:54:54;20;19;
36453;PMS5003;22478;51.740;-1.314;2023-09-08T03:57:21;27;24;
36453;PMS5003;22478;51.740;-1.314;2023-09-08T03:59:48;23;23;
36453;PMS5003;22478;51.740;-1.314;2023-09-08T04:02:15;22;22;
36453;PMS5003;22478;51.740;-1.314;2023-09-08T04:04:43;20;20;
36453;PMS5003;22478;51.740;-1.314;2023-09-08T04:07:11;22;20;
36453;PMS5003;22478;51.740;-1.314;2023-09-08T04:09:37;19;19;
36453;PMS5003;22478;51.740;-1.314;2023-09-08T04:12:04;23;23;
36453;PMS5003;22478;51.740;-1.314;2023-09-08T04:14:32;18;18;
36453;PMS5003;22478;51.740;-1.314;2023-09-08T04:16:59;24;21;
36453;PMS5003;22478;51.740;-1.314;2023-09-08T04:19:26;23;21;
36453;PMS5003;22478;51.740;-1.314;2023-09-08T04:21:54;28;24;
36453;PMS5003;22478;51.740;-1.314;2023-09-08T04:24:21;27;23;
36453;PMS5003;22478;51.740;-1.314;2023-09-08T04:26:48;23;20;
36453;PMS5003;22478;51.740;-1.314;2023-09-08T04:29:15;23;22;
36453;PMS5003;22478;51.740;-1.314;2023-09-08T04:31:43;19;19;
36453;PMS5003;22478;51.740;-1.314;2023-09-08T04:34:10;23;21;
36453;PMS5003;22478;51.740;-1.314;2023-09-08T04:36:37;23;22;
36453;PMS5003;22478;51.740;-1.314;2023-09-08T04:39:04;20;19;
36453;PMS5003;22478;51.740;-1.314;2023-09-08T04:41:31;18;17;
36453;PMS5003;22478;51.740;-1.314;2023-09-08T04:43:58;25;21;
36453;PMS5003;22478;51.740;-1.314;2023-09-08T04:46:25;25;23;
36453;PMS5003;22478;51.740;-1.314;2023-09-08T04:48:52;23;19;
36453;PMS5003;22478;51.740;-1.314;2023-09-08T04:51:20;23;20;
36453;PMS5003;22478;51.740;-1.314;2023-09-08T04:53:47;18;18;
36453;PMS5003;22478;51.740;-1.314;2023-09-08T04:56:14;24;21;
36453;PMS5003;22478;51.740;-1.314;2023-09-08T04:58:41;20;20;
36453;PMS5003;22478;51.740;-1.314;2023-09-08T05:01:07;21;20;
36453;PMS5003;22478;51.740;-1.314;2023-09-08T05:03:35;18;17;
36453;PMS5003;22478;51.740;-1.314;2023-09-08T05:06:02;19;18;
36453;PMS5003;22478;51.740;-1.314;2023-09-08T05:08:30;18;18;
36453;PMS5003;22478;51.740;-1.314;2023-09-08T05:10:57;18;17;
36453;PMS5003;22478;51.740;-1.314;2023-09-08T05:13:25;20;20;
36453;PMS5003;22478;51.740;-1.314;2023-09-08T05:15:52;18;17;
36453;PMS5003;22478;51.740;-1.314;2023-09-08T05:18:19;21;19;
36453;PMS5003;22478;51.740;-1.314;2023-09-08T05:20:47;18;18;
36453;PMS5003;22478;51.740;-1.314;2023-09-08T05:23:14;22;20;
36453;PMS5003;22478;51.740;-1.314;2023-09-08T05:25:42;20;19;
36453;PMS5003;22478;51.740;-1.314;2023-09-08T05:28:09;22;21;
36453;PMS5003;22478;51.740;-1.314;2023-09-08T05:30:36;26;23;
36453;PMS5003;22478;51.740;-1.314;2023-09-08T05:33:04;22;22;
36453;PMS5003;22478;51.740;-1.314;2023-09-08T05:35:32;25;22;
36453;PMS5003;22478;51.740;-1.314;2023-09-08T05:37:59;23;21;
36453;PMS5003;22478;51.740;-1.314;2023-09-08T05:40:25;20;19;
36453;PMS5003;22478;51.740;-1.314;2023-09-08T05:42:53;18;18;
36453;PMS5003;22478;51.740;-1.314;2023-09-08T05:45:20;25;21;
36453;PMS5003;22478;51.740;-1.314;2023-09-08T05:47:48;22;19;
36453;PMS5003;22478;51.740;-1.314;2023-09-08T05:50:15;25;23;
36453;PMS5003;22478;51.740;-1.314;2023-09-08T05:52:43;22;21;
36453;PMS5003;22478;51.740;-1.314;2023-09-08T05:55:10;22;21;
36453;PMS5003;22478;51.740;-1.314;2023-09-08T05:57:37;23;23;
36453;PMS5003;22478;51.740;-1.314;2023-09-08T06:00:04;19;17;
36453;PMS5003;22478;51.740;-1.314;2023-09-08T06:02:32;20;20;
36453;PMS5003;22478;51.740;-1.314;2023-09-08T06:04:59;29;25;
36453;PMS5003;22478;51.740;-1.314;2023-09-08T06:07:26;24;24;
36453;PMS5003;22478;51.740;-1.314;2023-09-08T06:09:53;28;27;
36453;PMS5003;22478;51.740;-1.314;2023-09-08T06:12:20;23;22;
36453;PMS5003;22478;51.740;-1.314;2023-09-08T06:14:47;23;21;
36453;PMS5003;22478;51.740;-1.314;2023-09-08T06:17:14;25;25;
36453;PMS5003;22478;51.740;-1.314;2023-09-08T06:19:42;26;24;
36453;PMS5003;22478;51.740;-1.314;2023-09-08T06:22:09;25;23;
36453;PMS5003;22478;51.740;-1.314;2023-09-08T06:24:36;25;23;
36453;PMS5003;22478;51.740;-1.314;2023-09-08T06:27:04;25;25;
36453;PMS5003;22478;51.740;-1.314;2023-09-08T06:29:32;29;25;
36453;PMS5003;22478;51.740;-1.314;2023-09-08T06:32:00;26;26;
36453;PMS5003;22478;51.740;-1.314;2023-09-08T06:34:27;27;25;
36453;PMS5003;22478;51.740;-1.314;2023-09-08T06:36:54;24;23;
36453;PMS5003;22478;51.740;-1.314;2023-09-08T06:39:22;28;24;
36453;PMS5003;22478;51.740;-1.314;2023-09-08T06:41:51;27;26;
36453;PMS5003;22478;51.740;-1.314;2023-09-08T06:44:19;24;24;
36453;PMS5003;22478;51.740;-1.314;2023-09-08T06:46:47;26;23;
36453;PMS5003;22478;51.740;-1.314;2023-09-08T06:49:14;27;24;
36453;PMS5003;22478;51.740;-1.314;2023-09-08T06:51:41;26;26;
36453;PMS5003;22478;51.740;-1.314;2023-09-08T06:54:08;29;24;
36453;PMS5003;22478;51.740;-1.314;2023-09-08T06:56:35;33;30;
36453;PMS5003;22478;51.740;-1.314;2023-09-08T06:59:03;27;27;
36453;PMS5003;22478;51.740;-1.314;2023-09-08T07:01:30;33;31;
36453;PMS5003;22478;51.740;-1.314;2023-09-08T07:03:58;27;26;
36453;PMS5003;22478;51.740;-1.314;2023-09-08T07:06:24;33;28;
36453;PMS5003;22478;51.740;-1.314;2023-09-08T07:08:52;29;27;
36453;PMS5003;22478;51.740;-1.314;2023-09-08T07:11:18;27;25;
36453;PMS5003;22478;51.740;-1.314;2023-09-08T07:13:45;30;25;
36453;PMS5003;22478;51.740;-1.314;2023-09-08T07:16:13;30;27;
36453;PMS5003;22478;51.740;-1.314;2023-09-08T07:18:40;26;24;
36453;PMS5003;22478;51.740;-1.314;2023-09-08T07:21:07;23;22;
36453;PMS5003;22478;51.740;-1.314;2023-09-08T07:23:35;28;27;
36453;PMS5003;22478;51.740;-1.314;2023-09-08T07:26:02;33;31;
36453;PMS5003;22478;51.740;-1.314;2023-09-08T07:28:30;26;24;
36453;PMS5003;22478;51.740;-1.314;2023-09-08T07:31:00;26;21;
36453;PMS5003;22478;51.740;-1.314;2023-09-08T07:33:27;27;25;
36453;PMS5003;22478;51.740;-1.314;2023-09-08T07:35:54;24;22;
36453;PMS5003;22478;51.740;-1.314;2023-09-08T07:38:21;29;28;
36453;PMS5003;22478;51.740;-1.314;2023-09-08T07:40:49;25;24;
36453;PMS5003;22478;51.740;-1.314;2023-09-08T07:43:16;28;24;
36453;PMS5003;22478;51.740;-1.314;2023-09-08T07:45:43;24;24;
36453;PMS5003;22478;51.740;-1.314;2023-09-08T07:48:11;25;23;
36453;PMS5003;22478;51.740;-1.314;2023-09-08T07:50:38;30;25;
36453;PMS5003;22478;51.740;-1.314;2023-09-08T07:53:06;22;20;
36453;PMS5003;22478;51.740;-1.314;2023-09-08T07:55:34;25;22;
36453;PMS5003;22478;51.740;-1.314;2023-09-08T07:58:01;23;23;
36453;PMS5003;22478;51.740;-1.314;2023-09-08T08:00:28;30;28;
36453;PMS5003;22478;51.740;-1.314;2023-09-08T08:02:55;26;25;
36453;PMS5003;22478;51.740;-1.314;2023-09-08T08:05:23;23;23;
36453;PMS5003;22478;51.740;-1.314;2023-09-08T08:07:51;23;23;
36453;PMS5003;22478;51.740;-1.314;2023-09-08T08:10:18;23;23;
36453;PMS5003;22478;51.740;-1.314;2023-09-08T08:12:46;31;23;
36453;PMS5003;22478;51.740;-1.314;2023-09-08T08:15:13;26;25;
36453;PMS5003;22478;51.740;-1.314;2023-09-08T08:17:40;29;26;
36453;PMS5003;22478;51.740;-1.314;2023-09-08T08:20:08;26;24;
36453;PMS5003;22478;51.740;-1.314;2023-09-08T08:22:37;25;24;
36453;PMS5003;22478;51.740;-1.314;2023-09-08T08:25:05;26;25;
36453;PMS5003;22478;51.740;-1.314;2023-09-08T08:27:33;27;27;
36453;PMS5003;22478;51.740;-1.314;2023-09-08T08:30:00;24;24;
36453;PMS5003;22478;51.740;-1.314;2023-09-08T08:32:28;26;25;
36453;PMS5003;22478;51.740;-1.314;2023-09-08T08:34:55;25;25;
36453;PMS5003;22478;51.740;-1.314;2023-09-08T08:37:22;24;23;
36453;PMS5003;22478;51.740;-1.314;2023-09-08T08:39:49;24;24;
36453;PMS5003;22478;51.740;-1.314;2023-09-08T08:42:16;26;25;
36453;PMS5003;22478;51.740;-1.314;2023-09-08T08:44:44;21;20;
36453;PMS5003;22478;51.740;-1.314;2023-09-08T08:47:11;21;21;
36453;PMS5003;22478;51.740;-1.314;2023-09-08T08:49:40;28;26;
36453;PMS5003;22478;51.740;-1.314;2023-09-08T08:52:10;27;27;
36453;PMS5003;22478;51.740;-1.314;2023-09-08T08:54:38;24;24;
36453;PMS5003;22478;51.740;-1.314;2023-09-08T08:57:06;32;30;
36453;PMS5003;22478;51.740;-1.314;2023-09-08T08:59:34;23;23;
36453;PMS5003;22478;51.740;-1.314;2023-09-08T09:02:02;30;25;
36453;PMS5003;22478;51.740;-1.314;2023-09-08T09:04:30;26;25;
36453;PMS5003;22478;51.740;-1.314;2023-09-08T09:06:58;24;24;
36453;PMS5003;22478;51.740;-1.314;2023-09-08T09:09:26;31;30;
36453;PMS5003;22478;51.740;-1.314;2023-09-08T09:11:55;25;24;
36453;PMS5003;22478;51.740;-1.314;2023-09-08T09:14:22;31;28;
36453;PMS5003;22478;51.740;-1.314;2023-09-08T09:16:49;30;29;
36453;PMS5003;22478;51.740;-1.314;2023-09-08T09:19:17;35;29;
36453;PMS5003;22478;51.740;-1.314;2023-09-08T09:21:46;24;24;
36453;PMS5003;22478;51.740;-1.314;2023-09-08T09:24:16;25;25;
36453;PMS5003;22478;51.740;-1.314;2023-09-08T09:26:44;27;24;
36453;PMS5003;22478;51.740;-1.314;2023-09-08T09:29:11;26;23;
36453;PMS5003;22478;51.740;-1.314;2023-09-08T09:31:42;31;29;
36453;PMS5003;22478;51.740;-1.314;2023-09-08T09:34:17;23;23;
36453;PMS5003;22478;51.740;-1.314;2023-09-08T09:36:45;24;23;
36453;PMS5003;22478;51.740;-1.314;2023-09-08T09:39:13;22;22;
36453;PMS5003;22478;51.740;-1.314;2023-09-08T09:41:44;26;24;
36453;PMS5003;22478;51.740;-1.314;2023-09-08T09:44:12;25;24;
36453;PMS5003;22478;51.740;-1.314;2023-09-08T09:46:42;23;23;
36453;PMS5003;22478;51.740;-1.314;2023-09-08T09:49:10;22;22;
36453;PMS5003;22478;51.740;-1.314;2023-09-08T09:51:39;28;25;
36453;PMS5003;22478;51.740;-1.314;2023-09-08T09:54:08;28;23;
36453;PMS5003;22478;51.740;-1.314;2023-09-08T09:56:36;33;31;
36453;PMS5003;22478;51.740;-1.314;2023-09-08T09:59:05;31;25;
36453;PMS5003;22478;51.740;-1.314;2023-09-08T10:01:35;26;26;
36453;PMS5003;22478;51.740;-1.314;2023-09-08T10:04:03;26;24;
36453;PMS5003;22478;51.740;-1.314;2023-09-08T10:06:32;28;26;
36453;PMS5003;22478;51.740;-1.314;2023-09-08T10:09:00;31;29;
36453;PMS5003;22478;51.740;-1.314;2023-09-08T10:11:29;24;22;
36453;PMS5003;22478;51.740;-1.314;2023-09-08T10:14:00;22;19;
36453;PMS5003;22478;51.740;-1.314;2023-09-08T10:16:29;21;20;
36453;PMS5003;22478;51.740;-1.314;2023-09-08T10:19:00;23;22;
36453;PMS5003;22478;51.740;-1.314;2023-09-08T10:21:31;23;23;
36453;PMS5003;22478;51.740;-1.314;2023-09-08T10:24:03;23;23;
36453;PMS5003;22478;51.740;-1.314;2023-09-08T10:26:35;22;22;
36453;PMS5003;22478;51.740;-1.314;2023-09-08T10:29:06;19;17;
36453;PMS5003;22478;51.740;-1.314;2023-09-08T10:31:34;22;20;
36453;PMS5003;22478;51.740;-1.314;2023-09-08T10:34:02;20;19;
36453;PMS5003;22478;51.740;-1.314;2023-09-08T10:36:30;26;25;
36453;PMS5003;22478;51.740;-1.314;2023-09-08T10:39:17;24;20;
36453;PMS5003;22478;51.740;-1.314;2023-09-08T10:42:19;25;23;
36453;PMS5003;22478;51.740;-1.314;2023-09-08T10:45:13;18;18;
36453;PMS5003;22478;51.740;-1.314;2023-09-08T10:47:54;18;18;
36453;PMS5003;22478;51.740;-1.314;2023-09-08T10:50:27;19;19;
36453;PMS5003;22478;51.740;-1.314;2023-09-08T10:53:05;22;20;
36453;PMS5003;22478;51.740;-1.314;2023-09-08T10:55:35;25;24;
36453;PMS5003;22478;51.740;-1.314;2023-09-08T10:58:03;19;19;
36453;PMS5003;22478;51.740;-1.314;2023-09-08T11:00:42;25;23;
36453;PMS5003;22478;51.740;-1.314;2023-09-08T11:03:11;26;24;
36453;PMS5003;22478;51.740;-1.314;2023-09-08T11:05:39;23;23;
36453;PMS5003;22478;51.740;-1.314;2023-09-08T11:08:08;19;19;
36453;PMS5003;22478;51.740;-1.314;2023-09-08T11:10:35;24;22;
36453;PMS5003;22478;51.740;-1.314;2023-09-08T11:13:04;22;22;
36453;PMS5003;22478;51.740;-1.314;2023-09-08T11:15:31;21;21;
36453;PMS5003;22478;51.740;-1.314;2023-09-08T11:18:04;18;18;
36453;PMS5003;22478;51.740;-1.314;2023-09-08T11:20:33;23;21;
36453;PMS5003;22478;51.740;-1.314;2023-09-08T11:23:01;21;21;
36453;PMS5003;22478;51.740;-1.314;2023-09-08T11:25:28;22;21;
36453;PMS5003;22478;51.740;-1.314;2023-09-08T11:27:56;24;21;
36453;PMS5003;22478;51.740;-1.314;2023-09-08T11:30:24;29;29;
36453;PMS5003;22478;51.740;-1.314;2023-09-08T11:32:51;30;28;
36453;PMS5003;22478;51.740;-1.314;2023-09-08T11:35:19;28;23;
36453;PMS5003;22478;51.740;-1.314;2023-09-08T11:37:46;22;21;
36453;PMS5003;22478;51.740;-1.314;2023-09-08T11:40:14;24;24;
36453;PMS5003;22478;51.740;-1.314;2023-09-08T11:42:42;16;14;
36453;PMS5003;22478;51.740;-1.314;2023-09-08T11:45:11;20;16;
36453;PMS5003;22478;51.740;-1.314;2023-09-08T11:47:40;17;15;
36453;PMS5003;22478;51.740;-1.314;2023-09-08T11:50:08;15;15;
36453;PMS5003;22478;51.740;-1.314;2023-09-08T11:52:36;15;15;
36453;PMS5003;22478;51.740;-1.314;2023-09-08T11:55:04;14;14;
36453;PMS5003;22478;51.740;-1.314;2023-09-08T11:57:32;14;14;
36453;PMS5003;22478;51.740;-1.314;2023-09-08T11:59:59;20;20;
36453;PMS5003;22478;51.740;-1.314;2023-09-08T12:02:28;17;16;
36453;PMS5003;22478;51.740;-1.314;2023-09-08T12:04:55;18;17;
36453;PMS5003;22478;51.740;-1.314;2023-09-08T12:07:22;17;16;
36453;PMS5003;22478;51.740;-1.314;2023-09-08T12:09:49;11;11;
36453;PMS5003;22478;51.740;-1.314;2023-09-08T12:12:17;14;13;
36453;PMS5003;22478;51.740;-1.314;2023-09-08T12:14:44;14;14;
36453;PMS5003;22478;51.740;-1.314;2023-09-08T12:17:12;16;14;
36453;PMS5003;22478;51.740;-1.314;2023-09-08T12:19:39;16;16;
36453;PMS5003;22478;51.740;-1.314;2023-09-08T12:22:06;15;12;
36453;PMS5003;22478;51.740;-1.314;2023-09-08T12:24:50;12;11;
36453;PMS5003;22478;51.740;-1.314;2023-09-08T12:27:23;12;12;
36453;PMS5003;22478;51.740;-1.314;2023-09-08T12:29:52;10;10;
36453;PMS5003;22478;51.740;-1.314;2023-09-08T12:32:20;17;13;
36453;PMS5003;22478;51.740;-1.314;2023-09-08T12:34:47;13;13;
36453;PMS5003;22478;51.740;-1.314;2023-09-08T12:37:19;13;13;
36453;PMS5003;22478;51.740;-1.314;2023-09-08T12:39:47;14;12;
36453;PMS5003;22478;51.740;-1.314;2023-09-08T12:42:14;14;12;
36453;PMS5003;22478;51.740;-1.314;2023-09-08T12:44:42;19;14;
36453;PMS5003;22478;51.740;-1.314;2023-09-08T12:47:10;13;13;
36453;PMS5003;22478;51.740;-1.314;2023-09-08T12:49:37;14;11;
36453;PMS5003;22478;51.740;-1.314;2023-09-08T12:52:05;11;11;
36453;PMS5003;22478;51.740;-1.314;2023-09-08T12:54:33;12;12;
36453;PMS5003;22478;51.740;-1.314;2023-09-08T12:57:00;12;10;
36453;PMS5003;22478;51.740;-1.314;2023-09-08T12:59:28;9;9;
36453;PMS5003;22478;51.740;-1.314;2023-09-08T13:01:55;11;11;
36453;PMS5003;22478;51.740;-1.314;2023-09-08T13:04:22;12;12;
36453;PMS5003;22478;51.740;-1.314;2023-09-08T13:06:50;12;12;
36453;PMS5003;22478;51.740;-1.314;2023-09-08T13:09:17;12;11;
36453;PMS5003;22478;51.740;-1.314;2023-09-08T13:11:45;13;13;
36453;PMS5003;22478;51.740;-1.314;2023-09-08T13:14:12;12;10;
36453;PMS5003;22478;51.740;-1.314;2023-09-08T13:16:39;17;15;
36453;PMS5003;22478;51.740;-1.314;2023-09-08T13:19:06;15;14;
36453;PMS5003;22478;51.740;-1.314;2023-09-08T13:21:33;15;15;
36453;PMS5003;22478;51.740;-1.314;2023-09-08T13:24:03;14;14;
36453;PMS5003;22478;51.740;-1.314;2023-09-08T13:26:32;9;9;
36453;PMS5003;22478;51.740;-1.314;2023-09-08T13:29:00;16;14;
36453;PMS5003;22478;51.740;-1.314;2023-09-08T13:31:27;11;11;
36453;PMS5003;22478;51.740;-1.314;2023-09-08T13:33:55;13;12;
36453;PMS5003;22478;51.740;-1.314;2023-09-08T13:36:21;15;13;
36453;PMS5003;22478;51.740;-1.314;2023-09-08T13:38:49;11;11;
36453;PMS5003;22478;51.740;-1.314;2023-09-08T13:41:16;13;11;
36453;PMS5003;22478;51.740;-1.314;2023-09-08T13:43:43;14;12;
36453;PMS5003;22478;51.740;-1.314;2023-09-08T13:46:10;15;13;
36453;PMS5003;22478;51.740;-1.314;2023-09-08T13:48:37;13;10;
36453;PMS5003;22478;51.740;-1.314;2023-09-08T13:51:05;12;12;
36453;PMS5003;22478;51.740;-1.314;2023-09-08T13:53:32;16;16;
36453;PMS5003;22478;51.740;-1.314;2023-09-08T13:55:59;13;13;
36453;PMS5003;22478;51.740;-1.314;2023-09-08T13:58:27;13;11;
36453;PMS5003;22478;51.740;-1.314;2023-09-08T14:00:55;14;13;
36453;PMS5003;22478;51.740;-1.314;2023-09-08T14:03:22;10;10;
36453;PMS5003;22478;51.740;-1.314;2023-09-08T14:05:49;14;12;
36453;PMS5003;22478;51.740;-1.314;2023-09-08T14:08:16;16;12;
36453;PMS5003;22478;51.740;-1.314;2023-09-08T14:10:44;12;12;
36453;PMS5003;22478;51.740;-1.314;2023-09-08T14:13:12;11;10;
36453;PMS5003;22478;51.740;-1.314;2023-09-08T14:15:39;12;12;
36453;PMS5003;22478;51.740;-1.314;2023-09-08T14:18:07;14;14;
36453;PMS5003;22478;51.740;-1.314;2023-09-08T14:20:34;10;10;
36453;PMS5003;22478;51.740;-1.314;2023-09-08T14:23:02;10;10;
36453;PMS5003;22478;51.740;-1.314;2023-09-08T14:25:30;11;11;
36453;PMS5003;22478;51.740;-1.314;2023-09-08T14:27:57;14;14;
36453;PMS5003;22478;51.740;-1.314;2023-09-08T14:30:25;13;13;
36453;PMS5003;22478;51.740;-1.314;2023-09-08T14:32:53;14;14;
36453;PMS5003;22478;51.740;-1.314;2023-09-08T14:35:20;12;12;
36453;PMS5003;22478;51.740;-1.314;2023-09-08T14:37:48;14;13;
36453;PMS5003;22478;51.740;-1.314;2023-09-08T14:40:16;12;12;
36453;PMS5003;22478;51.740;-1.314;2023-09-08T14:42:44;12;11;
36453;PMS5003;22478;51.740;-1.314;2023-09-08T14:45:11;13;12;
36453;PMS5003;22478;51.740;-1.314;2023-09-08T14:47:39;10;10;
36453;PMS5003;22478;51.740;-1.314;2023-09-08T14:50:07;11;10;
36453;PMS5003;22478;51.740;-1.314;2023-09-08T14:52:34;11;10;
36453;PMS5003;22478;51.740;-1.314;2023-09-08T14:55:02;13;13;
36453;PMS5003;22478;51.740;-1.314;2023-09-08T14:57:29;12;10;
36453;PMS5003;22478;51.740;-1.314;2023-09-08T14:59:56;12;12;
36453;PMS5003;22478;51.740;-1.314;2023-09-08T15:02:24;12;11;
36453;PMS5003;22478;51.740;-1.314;2023-09-08T15:04:51;14;11;
36453;PMS5003;22478;51.740;-1.314;2023-09-08T15:07:19;14;14;
36453;PMS5003;22478;51.740;-1.314;2023-09-08T15:09:45;14;12;
36453;PMS5003;22478;51.740;-1.314;2023-09-08T15:12:13;11;11;
36453;PMS5003;22478;51.740;-1.314;2023-09-08T15:14:43;14;11;
36453;PMS5003;22478;51.740;-1.314;2023-09-08T15:17:11;10;10;
36453;PMS5003;22478;51.740;-1.314;2023-09-08T15:19:39;12;12;
36453;PMS5003;22478;51.740;-1.314;2023-09-08T15:22:06;16;14;
36453;PMS5003;22478;51.740;-1.314;2023-09-08T15:24:34;15;11;
36453;PMS5003;22478;51.740;-1.314;2023-09-08T15:27:01;14;10;
36453;PMS5003;22478;51.740;-1.314;2023-09-08T15:29:29;13;12;
36453;PMS5003;22478;51.740;-1.314;2023-09-08T15:31:56;12;12;
36453;PMS5003;22478;51.740;-1.314;2023-09-08T15:34:23;15;11;
36453;PMS5003;22478;51.740;-1.314;2023-09-08T15:36:50;11;11;
36453;PMS5003;22478;51.740;-1.314;2023-09-08T15:39:18;11;11;
36453;PMS5003;22478;51.740;-1.314;2023-09-08T15:41:46;12;12;
36453;PMS5003;22478;51.740;-1.314;2023-09-08T15:44:13;12;12;
36453;PMS5003;22478;51.740;-1.314;2023-09-08T15:46:41;11;11;
36453;PMS5003;22478;51.740;-1.314;2023-09-08T15:49:08;14;11;
36453;PMS5003;22478;51.740;-1.314;2023-09-08T15:51:34;13;11;
36453;PMS5003;22478;51.740;-1.314;2023-09-08T15:54:01;12;12;
36453;PMS5003;22478;51.740;-1.314;2023-09-08T15:56:29;11;10;
36453;PMS5003;22478;51.740;-1.314;2023-09-08T15:58:56;12;12;
36453;PMS5003;22478;51.740;-1.314;2023-09-08T16:01:24;11;11;
36453;PMS5003;22478;51.740;-1.314;2023-09-08T16:03:51;9;9;
36453;PMS5003;22478;51.740;-1.314;2023-09-08T16:06:18;11;11;